sensor_id;sensor_type;location;lat;lon;timestamp;P1;durP1;ratioP1;P2;durP2;ratioP2
18142;SDS011;9197;50.930;3.140;2023-04-03T00:00:40;22.10;;;15.60;;
18142;SDS011;9197;50.930;3.140;2023-04-03T00:03:08;21.67;;;16.07;;
18142;SDS011;9197;50.930;3.140;2023-04-03T00:05:35;20.90;;;16.37;;
18142;SDS011;9197;50.930;3.140;2023-04-03T00:08:03;23.57;;;16.17;;
18142;SDS011;9197;50.930;3.140;2023-04-03T00:10:33;21.33;;;16.10;;
18142;SDS011;9197;50.930;3.140;2023-04-03T00:13:00;19.17;;;15.50;;
18142;SDS011;9197;50.930;3.140;2023-04-03T00:15:31;22.00;;;16.57;;
18142;SDS011;9197;50.930;3.140;2023-04-03T00:17:58;19.93;;;14.47;;
18142;SDS011;9197;50.930;3.140;2023-04-03T00:20:26;18.03;;;15.80;;
18142;SDS011;9197;50.930;3.140;2023-04-03T00:22:53;18.20;;;14.27;;
18142;SDS011;9197;50.930;3.140;2023-04-03T00:25:21;20.17;;;15.63;;
18142;SDS011;9197;50.930;3.140;2023-04-03T00:27:49;22.83;;;15.33;;
18142;SDS011;9197;50.930;3.140;2023-04-03T00:30:17;18.00;;;14.50;;
18142;SDS011;9197;50.930;3.140;2023-04-03T00:32:46;18.03;;;15.80;;
18142;SDS011;9197;50.930;3.140;2023-04-03T00:35:14;18.10;;;14.63;;
18142;SDS011;9197;50.930;3.140;2023-04-03T00:37:42;18.67;;;14.33;;
18142;SDS011;9197;50.930;3.140;2023-04-03T00:40:10;16.07;;;14.27;;
18142;SDS011;9197;50.930;3.140;2023-04-03T00:42:39;17.53;;;13.87;;
18142;SDS011;9197;50.930;3.140;2023-04-03T00:48:07;18.10;;;14.33;;
18142;SDS011;9197;50.930;3.140;2023-04-03T00:50:35;15.60;;;13.03;;
18142;SDS011;9197;50.930;3.140;2023-04-03T00:53:04;21.20;;;14.77;;
18142;SDS011;9197;50.930;3.140;2023-04-03T00:55:32;20.70;;;14.37;;
18142;SDS011;9197;50.930;3.140;2023-04-03T00:57:59;22.73;;;14.80;;
18142;SDS011;9197;50.930;3.140;2023-04-03T01:00:27;16.33;;;12.67;;
18142;SDS011;9197;50.930;3.140;2023-04-03T01:02:55;17.93;;;12.97;;
18142;SDS011;9197;50.930;3.140;2023-04-03T01:05:24;20.20;;;13.33;;
18142;SDS011;9197;50.930;3.140;2023-04-03T01:07:51;16.40;;;12.60;;
18142;SDS011;9197;50.930;3.140;2023-04-03T01:10:19;16.87;;;12.17;;
18142;SDS011;9197;50.930;3.140;2023-04-03T01:12:48;16.17;;;12.50;;
18142;SDS011;9197;50.930;3.140;2023-04-03T01:15:16;16.47;;;11.50;;
18142;SDS011;9197;50.930;3.140;2023-04-03T01:17:45;17.43;;;12.13;;
18142;SDS011;9197;50.930;3.140;2023-04-03T01:23:12;14.87;;;11.23;;
18142;SDS011;9197;50.930;3.140;2023-04-03T01:25:41;14.83;;;11.83;;
18142;SDS011;9197;50.930;3.140;2023-04-03T01:28:10;15.50;;;11.30;;
18142;SDS011;9197;50.930;3.140;2023-04-03T01:30:39;15.23;;;11.80;;
18142;SDS011;9197;50.930;3.140;2023-04-03T01:33:11;17.37;;;11.30;;
18142;SDS011;9197;50.930;3.140;2023-04-03T01:35:39;13.43;;;10.13;;
18142;SDS011;9197;50.930;3.140;2023-04-03T01:38:06;20.60;;;11.63;;
18142;SDS011;9197;50.930;3.140;2023-04-03T01:40:33;14.00;;;9.53;;
18142;SDS011;9197;50.930;3.140;2023-04-03T01:43:01;11.90;;;10.53;;
18142;SDS011;9197;50.930;3.140;2023-04-03T01:45:28;12.63;;;10.60;;
18142;SDS011;9197;50.930;3.140;2023-04-03T01:47:56;13.87;;;9.93;;
18142;SDS011;9197;50.930;3.140;2023-04-03T01:50:25;12.63;;;9.60;;
18142;SDS011;9197;50.930;3.140;2023-04-03T01:52:52;14.63;;;11.13;;
18142;SDS011;9197;50.930;3.140;2023-04-03T01:55:19;15.37;;;11.33;;
18142;SDS011;9197;50.930;3.140;2023-04-03T01:57:47;12.63;;;10.53;;
18142;SDS011;9197;50.930;3.140;2023-04-03T02:00:14;13.70;;;11.13;;
18142;SDS011;9197;50.930;3.140;2023-04-03T02:02:42;13.37;;;11.97;;
18142;SDS011;9197;50.930;3.140;2023-04-03T02:05:09;11.10;;;9.33;;
18142;SDS011;9197;50.930;3.140;2023-04-03T02:07:38;13.10;;;10.33;;
18142;SDS011;9197;50.930;3.140;2023-04-03T02:10:06;15.97;;;10.13;;
18142;SDS011;9197;50.930;3.140;2023-04-03T02:12:33;10.90;;;9.50;;
18142;SDS011;9197;50.930;3.140;2023-04-03T02:15:00;12.20;;;9.90;;
18142;SDS011;9197;50.930;3.140;2023-04-03T02:17:28;12.13;;;10.27;;
18142;SDS011;9197;50.930;3.140;2023-04-03T02:19:55;15.63;;;10.53;;
18142;SDS011;9197;50.930;3.140;2023-04-03T02:22:23;13.63;;;10.13;;
18142;SDS011;9197;50.930;3.140;2023-04-03T02:24:51;12.87;;;9.70;;
18142;SDS011;9197;50.930;3.140;2023-04-03T02:27:19;12.30;;;10.20;;
18142;SDS011;9197;50.930;3.140;2023-04-03T02:29:46;12.73;;;10.40;;
18142;SDS011;9197;50.930;3.140;2023-04-03T02:32:14;12.70;;;11.10;;
18142;SDS011;9197;50.930;3.140;2023-04-03T02:34:41;15.50;;;10.80;;
18142;SDS011;9197;50.930;3.140;2023-04-03T02:37:08;11.07;;;9.80;;
18142;SDS011;9197;50.930;3.140;2023-04-03T02:39:36;14.57;;;11.80;;
18142;SDS011;9197;50.930;3.140;2023-04-03T02:42:05;13.20;;;11.50;;
18142;SDS011;9197;50.930;3.140;2023-04-03T02:44:33;14.50;;;11.00;;
18142;SDS011;9197;50.930;3.140;2023-04-03T02:47:00;18.77;;;12.00;;
18142;SDS011;9197;50.930;3.140;2023-04-03T02:49:28;13.53;;;12.00;;
18142;SDS011;9197;50.930;3.140;2023-04-03T02:51:55;14.53;;;11.60;;
18142;SDS011;9197;50.930;3.140;2023-04-03T02:54:23;14.77;;;12.47;;
18142;SDS011;9197;50.930;3.140;2023-04-03T02:56:53;14.80;;;12.30;;
18142;SDS011;9197;50.930;3.140;2023-04-03T02:59:22;14.17;;;11.80;;
18142;SDS011;9197;50.930;3.140;2023-04-03T03:01:49;19.27;;;13.27;;
18142;SDS011;9197;50.930;3.140;2023-04-03T03:04:17;15.47;;;11.60;;
18142;SDS011;9197;50.930;3.140;2023-04-03T03:06:44;18.83;;;12.90;;
18142;SDS011;9197;50.930;3.140;2023-04-03T03:09:12;16.90;;;12.20;;
18142;SDS011;9197;50.930;3.140;2023-04-03T03:11:40;14.20;;;12.17;;
18142;SDS011;9197;50.930;3.140;2023-04-03T03:14:07;14.17;;;12.07;;
18142;SDS011;9197;50.930;3.140;2023-04-03T03:16:36;16.30;;;13.13;;
18142;SDS011;9197;50.930;3.140;2023-04-03T03:19:03;20.30;;;13.10;;
18142;SDS011;9197;50.930;3.140;2023-04-03T03:21:31;17.77;;;13.20;;
18142;SDS011;9197;50.930;3.140;2023-04-03T03:23:59;16.37;;;12.97;;
18142;SDS011;9197;50.930;3.140;2023-04-03T03:26:27;13.70;;;12.30;;
18142;SDS011;9197;50.930;3.140;2023-04-03T03:28:54;15.63;;;12.43;;
18142;SDS011;9197;50.930;3.140;2023-04-03T03:31:22;15.87;;;13.27;;
18142;SDS011;9197;50.930;3.140;2023-04-03T03:33:51;14.30;;;12.47;;
18142;SDS011;9197;50.930;3.140;2023-04-03T03:36:18;17.97;;;13.17;;
18142;SDS011;9197;50.930;3.140;2023-04-03T03:38:45;17.73;;;12.00;;
18142;SDS011;9197;50.930;3.140;2023-04-03T03:41:13;16.13;;;13.07;;
18142;SDS011;9197;50.930;3.140;2023-04-03T03:43:40;17.47;;;12.50;;
18142;SDS011;9197;50.930;3.140;2023-04-03T03:46:08;17.70;;;13.60;;
18142;SDS011;9197;50.930;3.140;2023-04-03T03:48:35;19.07;;;12.50;;
18142;SDS011;9197;50.930;3.140;2023-04-03T03:51:04;14.07;;;12.60;;
18142;SDS011;9197;50.930;3.140;2023-04-03T03:53:32;18.63;;;12.30;;
18142;SDS011;9197;50.930;3.140;2023-04-03T03:55:59;14.83;;;12.10;;
18142;SDS011;9197;50.930;3.140;2023-04-03T03:58:27;12.13;;;10.90;;
18142;SDS011;9197;50.930;3.140;2023-04-03T04:00:54;17.40;;;12.13;;
18142;SDS011;9197;50.930;3.140;2023-04-03T04:03:22;14.57;;;11.33;;
18142;SDS011;9197;50.930;3.140;2023-04-03T04:05:49;15.13;;;11.27;;
18142;SDS011;9197;50.930;3.140;2023-04-03T04:08:18;15.47;;;12.40;;
18142;SDS011;9197;50.930;3.140;2023-04-03T04:10:45;18.93;;;11.93;;
18142;SDS011;9197;50.930;3.140;2023-04-03T04:13:13;12.67;;;11.37;;
18142;SDS011;9197;50.930;3.140;2023-04-03T04:15:40;16.53;;;10.33;;
18142;SDS011;9197;50.930;3.140;2023-04-03T04:18:08;12.00;;;10.77;;
18142;SDS011;9197;50.930;3.140;2023-04-03T04:20:35;15.67;;;10.97;;
18142;SDS011;9197;50.930;3.140;2023-04-03T04:23:02;15.50;;;10.83;;
18142;SDS011;9197;50.930;3.140;2023-04-03T04:25:31;16.37;;;11.17;;
18142;SDS011;9197;50.930;3.140;2023-04-03T04:27:59;15.00;;;10.27;;
18142;SDS011;9197;50.930;3.140;2023-04-03T04:30:26;15.27;;;10.20;;
18142;SDS011;9197;50.930;3.140;2023-04-03T04:32:54;14.87;;;11.90;;
18142;SDS011;9197;50.930;3.140;2023-04-03T04:35:21;16.23;;;11.00;;
18142;SDS011;9197;50.930;3.140;2023-04-03T04:37:48;17.40;;;11.43;;
18142;SDS011;9197;50.930;3.140;2023-04-03T04:40:16;15.30;;;11.00;;
18142;SDS011;9197;50.930;3.140;2023-04-03T04:42:45;15.67;;;11.83;;
18142;SDS011;9197;50.930;3.140;2023-04-03T04:45:12;16.67;;;10.00;;
18142;SDS011;9197;50.930;3.140;2023-04-03T04:47:40;14.03;;;10.03;;
18142;SDS011;9197;50.930;3.140;2023-04-03T04:50:07;14.17;;;10.83;;
18142;SDS011;9197;50.930;3.140;2023-04-03T04:52:35;9.37;;;8.27;;
18142;SDS011;9197;50.930;3.140;2023-04-03T04:55:03;13.90;;;9.47;;
18142;SDS011;9197;50.930;3.140;2023-04-03T04:57:30;10.53;;;7.77;;
18142;SDS011;9197;50.930;3.140;2023-04-03T04:59:59;10.17;;;7.83;;
18142;SDS011;9197;50.930;3.140;2023-04-03T05:02:27;10.23;;;8.03;;
18142;SDS011;9197;50.930;3.140;2023-04-03T05:04:55;9.70;;;8.47;;
18142;SDS011;9197;50.930;3.140;2023-04-03T05:07:22;11.67;;;7.80;;
18142;SDS011;9197;50.930;3.140;2023-04-03T05:09:50;9.10;;;8.10;;
18142;SDS011;9197;50.930;3.140;2023-04-03T05:12:17;10.23;;;7.50;;
18142;SDS011;9197;50.930;3.140;2023-04-03T05:14:44;12.40;;;7.97;;
18142;SDS011;9197;50.930;3.140;2023-04-03T05:17:13;9.63;;;7.93;;
18142;SDS011;9197;50.930;3.140;2023-04-03T05:19:40;9.93;;;8.43;;
18142;SDS011;9197;50.930;3.140;2023-04-03T05:22:07;7.93;;;7.13;;
18142;SDS011;9197;50.930;3.140;2023-04-03T05:24:35;8.87;;;7.97;;
18142;SDS011;9197;50.930;3.140;2023-04-03T05:27:02;10.00;;;7.10;;
18142;SDS011;9197;50.930;3.140;2023-04-03T05:29:30;8.90;;;7.53;;
18142;SDS011;9197;50.930;3.140;2023-04-03T05:31:57;8.30;;;6.90;;
18142;SDS011;9197;50.930;3.140;2023-04-03T05:34:26;10.97;;;6.60;;
18142;SDS011;9197;50.930;3.140;2023-04-03T05:36:54;10.10;;;6.43;;
18142;SDS011;9197;50.930;3.140;2023-04-03T05:39:21;6.37;;;5.77;;
18142;SDS011;9197;50.930;3.140;2023-04-03T05:41:49;8.60;;;6.73;;
18142;SDS011;9197;50.930;3.140;2023-04-03T05:44:16;7.87;;;6.77;;
18142;SDS011;9197;50.930;3.140;2023-04-03T05:46:44;7.70;;;6.93;;
18142;SDS011;9197;50.930;3.140;2023-04-03T05:49:11;10.40;;;6.73;;
18142;SDS011;9197;50.930;3.140;2023-04-03T05:51:40;7.67;;;6.83;;
18142;SDS011;9197;50.930;3.140;2023-04-03T05:54:11;8.90;;;6.13;;
18142;SDS011;9197;50.930;3.140;2023-04-03T05:56:39;11.00;;;6.00;;
18142;SDS011;9197;50.930;3.140;2023-04-03T05:59:07;8.17;;;6.13;;
18142;SDS011;9197;50.930;3.140;2023-04-03T06:01:34;7.43;;;6.20;;
18142;SDS011;9197;50.930;3.140;2023-04-03T06:04:02;8.90;;;6.00;;
18142;SDS011;9197;50.930;3.140;2023-04-03T06:06:43;6.17;;;5.67;;
18142;SDS011;9197;50.930;3.140;2023-04-03T06:09:11;8.73;;;6.23;;
18142;SDS011;9197;50.930;3.140;2023-04-03T06:11:38;6.93;;;6.23;;
18142;SDS011;9197;50.930;3.140;2023-04-03T06:14:06;8.37;;;5.57;;
18142;SDS011;9197;50.930;3.140;2023-04-03T06:16:34;9.10;;;5.50;;
18142;SDS011;9197;50.930;3.140;2023-04-03T06:19:02;11.93;;;7.10;;
18142;SDS011;9197;50.930;3.140;2023-04-03T06:21:29;14.30;;;6.47;;
18142;SDS011;9197;50.930;3.140;2023-04-03T06:23:58;8.27;;;5.47;;
18142;SDS011;9197;50.930;3.140;2023-04-03T06:26:26;7.10;;;4.50;;
18142;SDS011;9197;50.930;3.140;2023-04-03T06:28:53;7.40;;;5.90;;
18142;SDS011;9197;50.930;3.140;2023-04-03T06:31:21;10.50;;;6.07;;
18142;SDS011;9197;50.930;3.140;2023-04-03T06:33:48;10.83;;;7.00;;
18142;SDS011;9197;50.930;3.140;2023-04-03T06:36:17;7.70;;;5.93;;
18142;SDS011;9197;50.930;3.140;2023-04-03T06:38:46;10.20;;;5.80;;
18142;SDS011;9197;50.930;3.140;2023-04-03T06:41:15;8.57;;;5.67;;
18142;SDS011;9197;50.930;3.140;2023-04-03T06:43:43;17.37;;;6.40;;
18142;SDS011;9197;50.930;3.140;2023-04-03T06:46:14;9.50;;;5.50;;
18142;SDS011;9197;50.930;3.140;2023-04-03T06:48:42;7.07;;;4.20;;
18142;SDS011;9197;50.930;3.140;2023-04-03T06:51:14;6.00;;;4.17;;
18142;SDS011;9197;50.930;3.140;2023-04-03T06:53:42;8.87;;;4.63;;
18142;SDS011;9197;50.930;3.140;2023-04-03T06:56:10;4.80;;;3.83;;
18142;SDS011;9197;50.930;3.140;2023-04-03T06:58:38;4.20;;;3.80;;
18142;SDS011;9197;50.930;3.140;2023-04-03T07:01:07;5.37;;;3.97;;
18142;SDS011;9197;50.930;3.140;2023-04-03T07:03:35;4.70;;;3.60;;
18142;SDS011;9197;50.930;3.140;2023-04-03T07:06:02;6.60;;;4.37;;
18142;SDS011;9197;50.930;3.140;2023-04-03T07:08:30;7.03;;;3.43;;
18142;SDS011;9197;50.930;3.140;2023-04-03T07:10:57;6.10;;;3.90;;
18142;SDS011;9197;50.930;3.140;2023-04-03T07:13:25;5.20;;;3.67;;
18142;SDS011;9197;50.930;3.140;2023-04-03T07:15:54;5.63;;;3.92;;
18142;SDS011;9197;50.930;3.140;2023-04-03T07:18:21;5.70;;;4.25;;
18142;SDS011;9197;50.930;3.140;2023-04-03T07:20:50;6.85;;;3.13;;
18142;SDS011;9197;50.930;3.140;2023-04-03T07:23:17;4.00;;;3.05;;
18142;SDS011;9197;50.930;3.140;2023-04-03T07:25:45;3.72;;;3.28;;
18142;SDS011;9197;50.930;3.140;2023-04-03T07:28:13;3.47;;;3.17;;
18142;SDS011;9197;50.930;3.140;2023-04-03T07:30:44;3.78;;;3.25;;
18142;SDS011;9197;50.930;3.140;2023-04-03T07:33:14;6.50;;;3.53;;
18142;SDS011;9197;50.930;3.140;2023-04-03T07:35:42;4.27;;;3.07;;
18142;SDS011;9197;50.930;3.140;2023-04-03T07:38:09;4.37;;;3.33;;
18142;SDS011;9197;50.930;3.140;2023-04-03T07:40:37;4.67;;;3.03;;
18142;SDS011;9197;50.930;3.140;2023-04-03T07:43:05;3.90;;;2.90;;
18142;SDS011;9197;50.930;3.140;2023-04-03T07:45:35;4.93;;;3.27;;
18142;SDS011;9197;50.930;3.140;2023-04-03T07:48:03;3.37;;;2.63;;
18142;SDS011;9197;50.930;3.140;2023-04-03T07:50:32;3.23;;;2.80;;
18142;SDS011;9197;50.930;3.140;2023-04-03T07:53:02;4.90;;;2.93;;
18142;SDS011;9197;50.930;3.140;2023-04-03T07:55:31;6.60;;;3.53;;
18142;SDS011;9197;50.930;3.140;2023-04-03T07:57:58;5.83;;;3.50;;
18142;SDS011;9197;50.930;3.140;2023-04-03T08:00:26;5.00;;;2.80;;
18142;SDS011;9197;50.930;3.140;2023-04-03T08:02:54;4.13;;;2.90;;
18142;SDS011;9197;50.930;3.140;2023-04-03T08:05:22;4.87;;;3.43;;
18142;SDS011;9197;50.930;3.140;2023-04-03T08:07:52;4.87;;;3.20;;
18142;SDS011;9197;50.930;3.140;2023-04-03T08:10:19;2.78;;;2.58;;
18142;SDS011;9197;50.930;3.140;2023-04-03T08:12:47;3.38;;;3.05;;
18142;SDS011;9197;50.930;3.140;2023-04-03T08:15:14;3.80;;;2.78;;
18142;SDS011;9197;50.930;3.140;2023-04-03T08:17:42;9.13;;;3.10;;
18142;SDS011;9197;50.930;3.140;2023-04-03T08:20:09;6.75;;;3.08;;
18142;SDS011;9197;50.930;3.140;2023-04-03T08:22:37;4.88;;;2.70;;
18142;SDS011;9197;50.930;3.140;2023-04-03T08:25:07;2.85;;;2.60;;
18142;SDS011;9197;50.930;3.140;2023-04-03T08:27:35;3.95;;;2.70;;
18142;SDS011;9197;50.930;3.140;2023-04-03T08:30:03;5.40;;;3.20;;
18142;SDS011;9197;50.930;3.140;2023-04-03T08:32:32;2.88;;;2.40;;
18142;SDS011;9197;50.930;3.140;2023-04-03T08:35:00;6.07;;;3.15;;
18142;SDS011;9197;50.930;3.140;2023-04-03T08:37:28;3.45;;;3.15;;
18142;SDS011;9197;50.930;3.140;2023-04-03T08:39:56;5.45;;;3.53;;
18142;SDS011;9197;50.930;3.140;2023-04-03T08:42:29;6.72;;;3.80;;
18142;SDS011;9197;50.930;3.140;2023-04-03T08:44:59;8.15;;;3.85;;
18142;SDS011;9197;50.930;3.140;2023-04-03T08:47:28;5.47;;;3.58;;
18142;SDS011;9197;50.930;3.140;2023-04-03T08:49:59;5.50;;;4.45;;
18142;SDS011;9197;50.930;3.140;2023-04-03T08:52:31;6.20;;;5.47;;
18142;SDS011;9197;50.930;3.140;2023-04-03T08:55:00;8.07;;;5.20;;
18142;SDS011;9197;50.930;3.140;2023-04-03T08:57:30;7.47;;;5.15;;
18142;SDS011;9197;50.930;3.140;2023-04-03T09:00:00;6.70;;;5.03;;
18142;SDS011;9197;50.930;3.140;2023-04-03T09:02:31;5.75;;;5.18;;
18142;SDS011;9197;50.930;3.140;2023-04-03T09:05:01;9.57;;;5.57;;
18142;SDS011;9197;50.930;3.140;2023-04-03T09:07:31;6.20;;;5.60;;
18142;SDS011;9197;50.930;3.140;2023-04-03T09:10:00;8.47;;;5.63;;
18142;SDS011;9197;50.930;3.140;2023-04-03T09:12:32;10.23;;;6.97;;
18142;SDS011;9197;50.930;3.140;2023-04-03T09:15:02;9.73;;;5.93;;
18142;SDS011;9197;50.930;3.140;2023-04-03T09:17:37;7.03;;;6.00;;
18142;SDS011;9197;50.930;3.140;2023-04-03T09:20:11;8.50;;;5.50;;
18142;SDS011;9197;50.930;3.140;2023-04-03T09:22:41;6.20;;;5.38;;
18142;SDS011;9197;50.930;3.140;2023-04-03T09:25:12;6.90;;;6.13;;
18142;SDS011;9197;50.930;3.140;2023-04-03T09:27:41;6.75;;;6.07;;
18142;SDS011;9197;50.930;3.140;2023-04-03T09:30:12;6.70;;;5.45;;
18142;SDS011;9197;50.930;3.140;2023-04-03T09:32:41;8.50;;;6.70;;
18142;SDS011;9197;50.930;3.140;2023-04-03T09:35:16;7.33;;;5.83;;
18142;SDS011;9197;50.930;3.140;2023-04-03T09:37:45;6.87;;;6.17;;
18142;SDS011;9197;50.930;3.140;2023-04-03T09:42:57;7.23;;;5.73;;
18142;SDS011;9197;50.930;3.140;2023-04-03T09:45:25;9.00;;;4.37;;
18142;SDS011;9197;50.930;3.140;2023-04-03T09:48:03;8.60;;;5.17;;
18142;SDS011;9197;50.930;3.140;2023-04-03T09:50:32;5.32;;;4.35;;
18142;SDS011;9197;50.930;3.140;2023-04-03T09:53:01;6.22;;;4.70;;
18142;SDS011;9197;50.930;3.140;2023-04-03T09:55:31;7.05;;;4.45;;
18142;SDS011;9197;50.930;3.140;2023-04-03T09:58:00;6.15;;;4.45;;
18142;SDS011;9197;50.930;3.140;2023-04-03T10:00:28;7.07;;;4.40;;
18142;SDS011;9197;50.930;3.140;2023-04-03T10:02:57;5.37;;;4.67;;
18142;SDS011;9197;50.930;3.140;2023-04-03T10:05:27;4.80;;;4.13;;
18142;SDS011;9197;50.930;3.140;2023-04-03T10:08:06;5.03;;;4.07;;
18142;SDS011;9197;50.930;3.140;2023-04-03T10:10:34;6.97;;;4.20;;
18142;SDS011;9197;50.930;3.140;2023-04-03T10:13:09;5.57;;;4.10;;
18142;SDS011;9197;50.930;3.140;2023-04-03T10:15:39;5.73;;;3.30;;
18142;SDS011;9197;50.930;3.140;2023-04-03T10:18:17;5.73;;;3.90;;
18142;SDS011;9197;50.930;3.140;2023-04-03T10:20:47;7.33;;;3.70;;
18142;SDS011;9197;50.930;3.140;2023-04-03T10:23:17;5.37;;;3.73;;
18142;SDS011;9197;50.930;3.140;2023-04-03T10:25:48;4.43;;;2.93;;
18142;SDS011;9197;50.930;3.140;2023-04-03T10:28:19;3.92;;;2.85;;
18142;SDS011;9197;50.930;3.140;2023-04-03T10:30:52;5.65;;;2.70;;
18142;SDS011;9197;50.930;3.140;2023-04-03T10:33:34;3.72;;;3.20;;
18142;SDS011;9197;50.930;3.140;2023-04-03T10:36:07;4.30;;;2.90;;
18142;SDS011;9197;50.930;3.140;2023-04-03T10:38:40;4.60;;;3.22;;
18142;SDS011;9197;50.930;3.140;2023-04-03T10:41:11;5.72;;;3.50;;
18142;SDS011;9197;50.930;3.140;2023-04-03T10:43:42;3.67;;;3.15;;
18142;SDS011;9197;50.930;3.140;2023-04-03T10:46:12;5.13;;;3.70;;
18142;SDS011;9197;50.930;3.140;2023-04-03T10:48:45;6.13;;;3.77;;
18142;SDS011;9197;50.930;3.140;2023-04-03T10:51:19;4.33;;;3.77;;
18142;SDS011;9197;50.930;3.140;2023-04-03T10:53:50;3.60;;;3.00;;
18142;SDS011;9197;50.930;3.140;2023-04-03T10:56:20;6.93;;;3.40;;
18142;SDS011;9197;50.930;3.140;2023-04-03T10:58:54;7.50;;;3.80;;
18142;SDS011;9197;50.930;3.140;2023-04-03T11:01:27;5.90;;;3.80;;
18142;SDS011;9197;50.930;3.140;2023-04-03T11:03:58;6.70;;;4.70;;
18142;SDS011;9197;50.930;3.140;2023-04-03T11:06:26;5.77;;;2.90;;
18142;SDS011;9197;50.930;3.140;2023-04-03T11:08:59;5.23;;;3.20;;
18142;SDS011;9197;50.930;3.140;2023-04-03T11:11:32;5.83;;;2.67;;
18142;SDS011;9197;50.930;3.140;2023-04-03T11:14:03;4.07;;;2.80;;
18142;SDS011;9197;50.930;3.140;2023-04-03T11:16:33;4.67;;;2.67;;
18142;SDS011;9197;50.930;3.140;2023-04-03T11:19:02;3.97;;;3.10;;
18142;SDS011;9197;50.930;3.140;2023-04-03T11:21:32;6.47;;;2.93;;
18142;SDS011;9197;50.930;3.140;2023-04-03T11:24:00;3.50;;;2.20;;
18142;SDS011;9197;50.930;3.140;2023-04-03T11:26:31;2.37;;;2.17;;
18142;SDS011;9197;50.930;3.140;2023-04-03T11:29:03;2.43;;;2.10;;
18142;SDS011;9197;50.930;3.140;2023-04-03T11:31:35;4.00;;;2.20;;
18142;SDS011;9197;50.930;3.140;2023-04-03T11:34:08;5.43;;;2.50;;
18142;SDS011;9197;50.930;3.140;2023-04-03T11:36:41;3.73;;;2.70;;
18142;SDS011;9197;50.930;3.140;2023-04-03T11:39:15;5.67;;;3.03;;
18142;SDS011;9197;50.930;3.140;2023-04-03T11:41:43;4.40;;;2.80;;
18142;SDS011;9197;50.930;3.140;2023-04-03T11:46:55;3.33;;;2.37;;
18142;SDS011;9197;50.930;3.140;2023-04-03T11:52:10;4.30;;;2.33;;
18142;SDS011;9197;50.930;3.140;2023-04-03T11:54:45;4.43;;;2.60;;
18142;SDS011;9197;50.930;3.140;2023-04-03T11:57:23;4.43;;;2.70;;
18142;SDS011;9197;50.930;3.140;2023-04-03T12:02:58;6.77;;;2.63;;
18142;SDS011;9197;50.930;3.140;2023-04-03T12:05:26;4.40;;;2.63;;
18142;SDS011;9197;50.930;3.140;2023-04-03T12:13:31;6.57;;;3.00;;
18142;SDS011;9197;50.930;3.140;2023-04-03T12:15:59;2.97;;;2.07;;
18142;SDS011;9197;50.930;3.140;2023-04-03T12:21:18;2.53;;;2.20;;
18142;SDS011;9197;50.930;3.140;2023-04-03T12:23:56;4.83;;;2.10;;
18142;SDS011;9197;50.930;3.140;2023-04-03T12:26:24;3.73;;;2.40;;
18142;SDS011;9197;50.930;3.140;2023-04-03T12:28:53;2.10;;;1.87;;
18142;SDS011;9197;50.930;3.140;2023-04-03T12:31:22;5.33;;;2.47;;
18142;SDS011;9197;50.930;3.140;2023-04-03T12:34:04;4.17;;;2.27;;
18142;SDS011;9197;50.930;3.140;2023-04-03T12:36:38;3.30;;;2.23;;
18142;SDS011;9197;50.930;3.140;2023-04-03T12:41:51;3.73;;;2.53;;
18142;SDS011;9197;50.930;3.140;2023-04-03T12:44:25;2.30;;;1.63;;
18142;SDS011;9197;50.930;3.140;2023-04-03T12:46:54;3.50;;;2.00;;
18142;SDS011;9197;50.930;3.140;2023-04-03T12:52:16;2.77;;;1.93;;
18142;SDS011;9197;50.930;3.140;2023-04-03T12:54:44;2.03;;;1.23;;
18142;SDS011;9197;50.930;3.140;2023-04-03T12:57:16;2.83;;;1.80;;
18142;SDS011;9197;50.930;3.140;2023-04-03T12:59:44;2.10;;;1.20;;
18142;SDS011;9197;50.930;3.140;2023-04-03T13:02:20;3.53;;;1.53;;
18142;SDS011;9197;50.930;3.140;2023-04-03T13:04:49;4.60;;;1.43;;
18142;SDS011;9197;50.930;3.140;2023-04-03T13:07:23;4.67;;;1.40;;
18142;SDS011;9197;50.930;3.140;2023-04-03T13:09:57;1.80;;;1.40;;
18142;SDS011;9197;50.930;3.140;2023-04-03T13:12:25;4.43;;;2.00;;
18142;SDS011;9197;50.930;3.140;2023-04-03T13:14:53;2.43;;;2.10;;
18142;SDS011;9197;50.930;3.140;2023-04-03T13:17:22;2.20;;;1.70;;
18142;SDS011;9197;50.930;3.140;2023-04-03T13:19:50;1.90;;;1.20;;
18142;SDS011;9197;50.930;3.140;2023-04-03T13:22:23;3.07;;;1.97;;
18142;SDS011;9197;50.930;3.140;2023-04-03T13:24:52;3.07;;;1.30;;
18142;SDS011;9197;50.930;3.140;2023-04-03T13:27:21;1.73;;;1.10;;
18142;SDS011;9197;50.930;3.140;2023-04-03T13:29:49;2.17;;;1.37;;
18142;SDS011;9197;50.930;3.140;2023-04-03T13:32:18;3.33;;;1.67;;
18142;SDS011;9197;50.930;3.140;2023-04-03T13:34:46;3.30;;;1.40;;
18142;SDS011;9197;50.930;3.140;2023-04-03T13:37:22;3.07;;;1.80;;
18142;SDS011;9197;50.930;3.140;2023-04-03T13:39:58;4.33;;;1.70;;
18142;SDS011;9197;50.930;3.140;2023-04-03T13:42:26;2.50;;;1.67;;
18142;SDS011;9197;50.930;3.140;2023-04-03T13:45:16;3.47;;;1.80;;
18142;SDS011;9197;50.930;3.140;2023-04-03T13:47:45;4.40;;;1.77;;
18142;SDS011;9197;50.930;3.140;2023-04-03T13:50:15;2.67;;;1.43;;
18142;SDS011;9197;50.930;3.140;2023-04-03T13:52:45;6.00;;;2.33;;
18142;SDS011;9197;50.930;3.140;2023-04-03T13:55:18;5.67;;;2.17;;
18142;SDS011;9197;50.930;3.140;2023-04-03T13:57:51;1.70;;;1.60;;
18142;SDS011;9197;50.930;3.140;2023-04-03T14:00:20;4.80;;;2.23;;
18142;SDS011;9197;50.930;3.140;2023-04-03T14:02:47;2.60;;;1.90;;
18142;SDS011;9197;50.930;3.140;2023-04-03T14:05:15;2.87;;;1.73;;
18142;SDS011;9197;50.930;3.140;2023-04-03T14:07:46;2.70;;;1.77;;
18142;SDS011;9197;50.930;3.140;2023-04-03T14:10:13;2.80;;;1.70;;
18142;SDS011;9197;50.930;3.140;2023-04-03T14:12:42;4.97;;;2.07;;
18142;SDS011;9197;50.930;3.140;2023-04-03T14:15:14;5.40;;;2.00;;
18142;SDS011;9197;50.930;3.140;2023-04-03T14:17:43;3.00;;;1.40;;
18142;SDS011;9197;50.930;3.140;2023-04-03T14:20:13;4.87;;;2.07;;
18142;SDS011;9197;50.930;3.140;2023-04-03T14:22:41;3.83;;;2.07;;
18142;SDS011;9197;50.930;3.140;2023-04-03T14:25:09;3.13;;;1.73;;
18142;SDS011;9197;50.930;3.140;2023-04-03T14:27:37;3.70;;;1.90;;
18142;SDS011;9197;50.930;3.140;2023-04-03T14:30:08;3.57;;;1.87;;
18142;SDS011;9197;50.930;3.140;2023-04-03T14:32:36;3.20;;;2.13;;
18142;SDS011;9197;50.930;3.140;2023-04-03T14:35:04;3.10;;;1.77;;
18142;SDS011;9197;50.930;3.140;2023-04-03T14:37:32;2.80;;;1.97;;
18142;SDS011;9197;50.930;3.140;2023-04-03T14:40:01;5.03;;;2.60;;
18142;SDS011;9197;50.930;3.140;2023-04-03T14:42:30;3.47;;;2.93;;
18142;SDS011;9197;50.930;3.140;2023-04-03T14:44:58;2.83;;;1.97;;
18142;SDS011;9197;50.930;3.140;2023-04-03T14:47:27;5.70;;;1.70;;
18142;SDS011;9197;50.930;3.140;2023-04-03T14:49:55;3.53;;;1.90;;
18142;SDS011;9197;50.930;3.140;2023-04-03T14:52:23;2.10;;;1.90;;
18142;SDS011;9197;50.930;3.140;2023-04-03T14:54:51;3.90;;;1.97;;
18142;SDS011;9197;50.930;3.140;2023-04-03T14:57:19;7.90;;;1.90;;
18142;SDS011;9197;50.930;3.140;2023-04-03T14:59:49;3.97;;;2.13;;
18142;SDS011;9197;50.930;3.140;2023-04-03T15:02:24;2.70;;;1.50;;
18142;SDS011;9197;50.930;3.140;2023-04-03T15:04:53;2.17;;;1.20;;
18142;SDS011;9197;50.930;3.140;2023-04-03T15:07:21;4.80;;;1.47;;
18142;SDS011;9197;50.930;3.140;2023-04-03T15:09:49;6.03;;;1.40;;
18142;SDS011;9197;50.930;3.140;2023-04-03T15:12:17;5.47;;;1.80;;
18142;SDS011;9197;50.930;3.140;2023-04-03T15:14:44;2.90;;;1.83;;
18142;SDS011;9197;50.930;3.140;2023-04-03T15:17:13;2.93;;;1.83;;
18142;SDS011;9197;50.930;3.140;2023-04-03T15:19:42;5.70;;;2.40;;
18142;SDS011;9197;50.930;3.140;2023-04-03T15:22:14;4.23;;;1.80;;
18142;SDS011;9197;50.930;3.140;2023-04-03T15:24:42;3.73;;;1.73;;
18142;SDS011;9197;50.930;3.140;2023-04-03T15:27:10;1.97;;;1.60;;
18142;SDS011;9197;50.930;3.140;2023-04-03T15:29:38;3.67;;;1.83;;
18142;SDS011;9197;50.930;3.140;2023-04-03T15:32:09;2.37;;;1.73;;
18142;SDS011;9197;50.930;3.140;2023-04-03T15:34:37;3.20;;;1.63;;